createdAt,value
2019-02-10T00:01:13.570Z,29.33
2019-02-10T00:03:42.486Z,28.87
2019-02-10T00:06:11.430Z,28.37
2019-02-10T00:08:40.276Z,27.30
2019-02-10T00:11:09.170Z,27.63
2019-02-10T00:13:38.110Z,26.20
2019-02-10T00:16:12.550Z,28.03
2019-02-10T00:18:41.424Z,28.77
2019-02-10T00:21:10.272Z,27.47
2019-02-10T00:23:39.160Z,29.00
2019-02-10T00:26:08.011Z,29.27
2019-02-10T00:28:36.954Z,28.23
2019-02-10T00:31:05.829Z,29.63
2019-02-10T00:33:34.668Z,28.40
2019-02-10T00:36:03.498Z,30.33
2019-02-10T00:38:32.385Z,30.27
2019-02-10T00:41:01.237Z,30.80
2019-02-10T00:43:30.285Z,30.17
2019-02-10T00:45:59.178Z,30.30
2019-02-10T00:48:28.011Z,30.47
2019-02-10T00:50:56.862Z,28.33
2019-02-10T00:53:25.764Z,28.47
2019-02-10T00:55:54.609Z,28.27
2019-02-10T00:58:26.280Z,30.67
2019-02-10T01:00:55.120Z,28.37
2019-02-10T01:03:24.295Z,28.60
2019-02-10T01:05:53.156Z,29.13
2019-02-10T01:08:22.040Z,27.67
2019-02-10T01:10:50.898Z,30.07
2019-02-10T01:13:19.837Z,29.20
2019-02-10T01:15:48.716Z,29.53
2019-02-10T01:18:17.542Z,30.30
2019-02-10T01:20:46.430Z,29.27
2019-02-10T01:23:15.388Z,38.55
2019-02-10T01:25:44.267Z,32.73
2019-02-10T01:28:13.442Z,30.67
2019-02-10T01:30:42.957Z,32.37
2019-02-10T01:33:20.435Z,30.47
2019-02-10T01:35:49.316Z,29.37
2019-02-10T01:38:18.157Z,29.77
2019-02-10T01:40:47.040Z,29.97
2019-02-10T01:43:15.928Z,32.03
2019-02-10T01:45:44.768Z,31.30
2019-02-10T01:48:13.606Z,32.20
2019-02-10T01:50:42.494Z,30.37
2019-02-10T01:53:11.308Z,30.70
2019-02-10T01:55:40.146Z,30.97
2019-02-10T01:58:09.018Z,32.27
2019-02-10T02:00:37.875Z,31.00
2019-02-10T02:03:06.714Z,29.80
2019-02-10T02:05:35.955Z,30.77
2019-02-10T02:08:04.817Z,30.00
2019-02-10T02:10:33.667Z,41.87
2019-02-10T02:13:02.584Z,30.23
2019-02-10T02:15:31.440Z,28.30
2019-02-10T02:18:00.349Z,29.40
2019-02-10T02:20:29.198Z,28.80
2019-02-10T02:22:58.052Z,28.90
2019-02-10T02:25:27.638Z,29.50
2019-02-10T02:27:56.561Z,29.27
2019-02-10T02:30:25.395Z,27.93
2019-02-10T02:32:54.240Z,28.97
2019-02-10T02:35:23.124Z,29.10
2019-02-10T02:37:51.970Z,29.43
2019-02-10T02:40:20.810Z,27.43
2019-02-10T02:42:54.347Z,27.73
2019-02-10T02:45:23.154Z,27.63
2019-02-10T02:47:52.118Z,26.97
2019-02-10T02:50:21.047Z,33.65
2019-02-10T02:52:49.845Z,26.67
2019-02-10T02:55:18.687Z,26.50
2019-02-10T02:57:47.687Z,27.47
2019-02-10T03:00:16.546Z,26.07
2019-02-10T03:02:45.369Z,25.00
2019-02-10T03:05:14.248Z,24.13
2019-02-10T03:07:43.116Z,26.10
2019-02-10T03:10:12.690Z,25.50
2019-02-10T03:12:41.590Z,24.83
2019-02-10T03:15:10.474Z,25.50
2019-02-10T03:17:39.313Z,23.17
2019-02-10T03:20:09.926Z,23.30
2019-02-10T03:22:38.758Z,25.10
2019-02-10T03:25:08.499Z,24.90
2019-02-10T03:27:37.418Z,23.80
2019-02-10T03:30:09.234Z,25.23
2019-02-10T03:32:38.028Z,23.07
2019-02-10T03:35:08.849Z,22.23
2019-02-10T03:37:37.687Z,20.63
2019-02-10T03:40:08.248Z,22.53
2019-02-10T03:42:37.141Z,30.33
2019-02-10T03:45:08.084Z,24.90
2019-02-10T03:47:36.936Z,25.30
2019-02-10T03:50:07.428Z,26.33
2019-02-10T03:52:36.276Z,27.27
2019-02-10T03:55:14.013Z,25.00
2019-02-10T03:57:42.958Z,24.20
2019-02-10T04:00:13.189Z,23.00
2019-02-10T04:02:42.024Z,25.43
2019-02-10T04:05:10.938Z,24.33
2019-02-10T04:07:39.771Z,26.00
2019-02-10T04:10:10.580Z,25.83
2019-02-10T04:12:39.482Z,27.30
2019-02-10T04:15:08.731Z,26.13
2019-02-10T04:17:37.577Z,25.20
2019-02-10T04:20:08.497Z,24.77
2019-02-10T04:22:37.333Z,28.67
2019-02-10T04:25:07.086Z,24.53
2019-02-10T04:27:35.992Z,25.53
2019-02-10T04:30:09.183Z,26.27
2019-02-10T04:32:37.970Z,25.50
2019-02-10T04:35:06.840Z,26.37
2019-02-10T04:37:44.794Z,25.20
2019-02-10T04:40:07.465Z,23.30
2019-02-10T04:42:36.352Z,23.63
2019-02-10T04:45:06.052Z,22.83
2019-02-10T04:47:34.927Z,23.93
2019-02-10T04:50:04.701Z,22.03
2019-02-10T04:52:33.614Z,23.70
2019-02-10T04:55:02.520Z,21.83
2019-02-10T04:57:31.373Z,22.30
2019-02-10T05:00:00.379Z,22.40
2019-02-10T05:02:29.307Z,22.17
2019-02-10T05:04:58.221Z,21.57
2019-02-10T05:07:27.070Z,22.27
2019-02-10T05:09:55.930Z,28.17
2019-02-10T05:12:24.783Z,23.37
2019-02-10T05:14:53.741Z,24.33
2019-02-10T05:17:22.613Z,22.43
2019-02-10T05:19:51.538Z,22.67
2019-02-10T05:22:20.383Z,22.00
2019-02-10T05:24:49.237Z,23.20
2019-02-10T05:27:18.913Z,21.53
2019-02-10T05:29:47.803Z,23.83
2019-02-10T05:32:16.651Z,23.30
2019-02-10T05:34:47.169Z,21.10
2019-02-10T05:37:16.028Z,23.03
2019-02-10T05:39:44.858Z,20.83
2019-02-10T05:42:15.215Z,20.77
2019-02-10T05:44:44.119Z,19.97
2019-02-10T05:47:12.936Z,20.00
2019-02-10T05:49:43.281Z,22.58
2019-02-10T05:52:13.947Z,21.90
2019-02-10T05:54:43.263Z,20.27
2019-02-10T05:57:12.134Z,19.67
2019-02-10T05:59:40.995Z,19.67
2019-02-10T06:02:26.640Z,21.33
2019-02-10T06:04:55.579Z,21.53
2019-02-10T06:07:24.490Z,19.47
2019-02-10T06:09:55.037Z,21.03
2019-02-10T06:12:23.875Z,21.60
2019-02-10T06:14:57.100Z,19.33
2019-02-10T06:17:24.295Z,21.60
2019-02-10T06:19:55.488Z,23.43
2019-02-10T06:22:24.400Z,22.87
2019-02-10T06:24:53.293Z,21.07
2019-02-10T06:27:26.036Z,22.70
2019-02-10T06:29:55.170Z,21.73
2019-02-10T06:32:24.157Z,22.17
2019-02-10T06:34:53.370Z,23.87
2019-02-10T06:37:22.220Z,22.10
2019-02-10T06:39:51.086Z,28.67
2019-02-10T06:42:20.881Z,23.23
2019-02-10T06:44:49.720Z,21.60
2019-02-10T06:47:19.839Z,23.57
2019-02-10T06:49:48.756Z,21.57
2019-02-10T06:52:17.609Z,20.50
2019-02-10T06:54:55.358Z,20.00
2019-02-10T06:57:24.203Z,20.20
2019-02-10T06:59:57.628Z,20.67
2019-02-10T07:02:28.132Z,21.33
2019-02-10T07:04:57.003Z,20.13
2019-02-10T07:07:27.138Z,20.23
2019-02-10T07:09:56.019Z,24.13
2019-02-10T07:12:48.219Z,22.63
2019-02-10T07:15:56.881Z,20.70
2019-02-10T07:19:03.199Z,30.08
2019-02-10T07:21:34.302Z,36.80
2019-02-10T07:24:06.112Z,24.67
2019-02-10T07:26:41.023Z,23.10
2019-02-10T07:29:16.213Z,22.80
2019-02-10T07:31:48.157Z,21.70
2019-02-10T07:34:31.683Z,20.63
2019-02-10T07:37:08.908Z,20.70
2019-02-10T07:39:47.001Z,23.47
2019-02-10T07:42:21.620Z,27.35
2019-02-10T07:44:59.385Z,23.17
2019-02-10T07:47:31.196Z,21.07
2019-02-10T07:50:12.193Z,21.50
2019-02-10T07:53:03.493Z,21.60
2019-02-10T07:55:53.365Z,19.20
2019-02-10T07:58:25.203Z,19.63
2019-02-10T08:01:14.637Z,20.90
2019-02-10T08:03:58.311Z,18.43
2019-02-10T08:06:35.717Z,26.85
2019-02-10T08:09:13.265Z,21.70
2019-02-10T08:12:02.949Z,21.33
2019-02-10T08:14:43.788Z,20.00
2019-02-10T08:17:24.432Z,18.53
2019-02-10T08:20:14.486Z,17.73
2019-02-10T08:23:10.386Z,18.90
2019-02-10T08:26:02.141Z,17.80
2019-02-10T08:28:52.179Z,18.77
2019-02-10T08:31:38.905Z,18.87
2019-02-10T08:34:25.761Z,18.83
2019-02-10T08:37:04.071Z,19.87
2019-02-10T08:39:55.374Z,19.33
2019-02-10T08:42:39.223Z,19.40
2019-02-10T08:45:32.321Z,26.80
2019-02-10T08:48:14.529Z,21.93
2019-02-10T08:50:46.360Z,20.03
2019-02-10T08:53:25.542Z,20.67
2019-02-10T08:55:57.243Z,20.10
2019-02-10T08:58:26.276Z,21.07
2019-02-10T09:01:07.214Z,21.43
2019-02-10T09:03:41.689Z,21.37
2019-02-10T09:06:10.818Z,21.47
2019-02-10T09:08:48.453Z,19.33
2019-02-10T09:11:19.077Z,19.80
2019-02-10T09:13:47.982Z,21.70
2019-02-10T09:16:16.818Z,22.50
2019-02-10T09:18:45.703Z,20.40
2019-02-10T09:21:14.591Z,21.67
2019-02-10T09:23:43.437Z,22.03
2019-02-10T09:26:14.652Z,20.87
2019-02-10T09:28:44.760Z,23.17
2019-02-10T09:31:15.499Z,23.17
2019-02-10T09:33:44.219Z,24.12
2019-02-10T09:36:13.057Z,21.80
2019-02-10T09:38:44.358Z,20.93
2019-02-10T09:41:13.255Z,22.63
2019-02-10T09:43:42.130Z,23.13
2019-02-10T09:46:12.598Z,21.93
2019-02-10T09:48:41.510Z,20.97
2019-02-10T09:51:12.137Z,21.73
2019-02-10T09:53:41.016Z,22.97
2019-02-10T09:56:11.349Z,24.20
2019-02-10T09:58:40.369Z,22.70
2019-02-10T10:01:09.327Z,24.10
2019-02-10T10:03:38.230Z,22.90
2019-02-10T10:06:07.177Z,24.10
2019-02-10T10:08:36.526Z,23.83
2019-02-10T10:11:07.019Z,25.37
2019-02-10T10:13:35.860Z,25.90
2019-02-10T10:16:05.678Z,24.20
2019-02-10T10:18:34.672Z,24.67
2019-02-10T10:21:03.541Z,26.90
2019-02-10T10:23:32.418Z,27.33
2019-02-10T10:26:01.341Z,25.27
2019-02-10T10:28:30.231Z,26.10
2019-02-10T10:30:59.147Z,27.20
2019-02-10T10:33:28.537Z,25.33
2019-02-10T10:35:57.696Z,26.53
2019-02-10T10:38:26.729Z,31.10
2019-02-10T10:40:58.032Z,27.20
2019-02-10T10:43:26.920Z,27.20
2019-02-10T10:45:57.136Z,26.33
2019-02-10T10:48:26.097Z,26.23
2019-02-10T10:50:55.106Z,26.10
2019-02-10T10:53:25.541Z,27.17
2019-02-10T10:56:16.831Z,26.57
2019-02-10T10:58:45.779Z,25.57
2019-02-10T11:01:14.674Z,26.60
2019-02-10T11:03:55.077Z,36.03
2019-02-10T11:06:25.123Z,27.07
2019-02-10T11:08:55.639Z,27.80
2019-02-10T11:11:27.657Z,28.73
2019-02-10T11:13:56.524Z,31.47
2019-02-10T11:16:25.382Z,27.67
2019-02-10T11:18:58.500Z,26.67
2019-02-10T11:21:27.725Z,27.53
2019-02-10T11:24:02.147Z,28.27
2019-02-10T11:26:38.311Z,27.77
2019-02-10T11:29:13.601Z,26.37
2019-02-10T11:31:42.440Z,25.87
2019-02-10T11:34:12.634Z,55.87
2019-02-10T11:36:41.481Z,27.43
2019-02-10T11:39:10.291Z,34.73
2019-02-10T11:41:43.216Z,29.00
2019-02-10T11:44:12.070Z,28.20
2019-02-10T11:46:41.991Z,26.50
2019-02-10T11:49:11.521Z,27.47
2019-02-10T11:51:43.479Z,28.60
2019-02-10T11:54:13.767Z,38.53
2019-02-10T11:56:44.178Z,41.40
2019-02-10T11:59:14.173Z,30.33
2019-02-10T12:01:43.023Z,28.37
2019-02-10T12:04:14.272Z,28.03
2019-02-10T12:06:44.571Z,31.40
2019-02-10T12:09:19.917Z,28.73
2019-02-10T12:11:50.403Z,29.23
2019-02-10T12:14:19.327Z,27.67
2019-02-10T12:16:52.467Z,30.73
2019-02-10T12:19:20.373Z,28.97
2019-02-10T12:21:49.296Z,29.33
2019-02-10T12:24:18.221Z,26.20
2019-02-10T12:26:47.060Z,27.53
2019-02-10T12:29:15.963Z,35.98
2019-02-10T12:31:46.411Z,29.03
2019-02-10T12:34:15.938Z,28.27
2019-02-10T12:36:44.801Z,27.63
2019-02-10T12:39:13.676Z,25.07
2019-02-10T12:41:44.018Z,27.10
2019-02-10T12:44:12.909Z,24.77
2019-02-10T12:46:46.815Z,25.47
2019-02-10T12:49:15.689Z,24.47
2019-02-10T12:51:44.610Z,28.57
2019-02-10T12:54:13.615Z,28.37
2019-02-10T12:56:43.685Z,26.77
2019-02-10T12:59:12.535Z,27.97
2019-02-10T13:01:41.445Z,26.67
2019-02-10T13:04:12.020Z,42.55
2019-02-10T13:06:42.626Z,33.80
2019-02-10T13:09:15.025Z,33.37
2019-02-10T13:11:44.903Z,26.17
2019-02-10T13:14:15.083Z,24.23
2019-02-10T13:16:45.296Z,27.40
2019-02-10T13:19:14.183Z,23.97
2019-02-10T13:21:43.024Z,25.07
2019-02-10T13:24:11.933Z,26.47
2019-02-10T13:26:40.798Z,25.87
2019-02-10T13:29:09.679Z,25.53
2019-02-10T13:31:39.207Z,27.57
2019-02-10T13:34:11.076Z,27.30
2019-02-10T13:36:43.071Z,27.90
2019-02-10T13:39:17.082Z,28.30
2019-02-10T13:41:45.743Z,28.17
2019-02-10T13:44:31.462Z,27.67
2019-02-10T13:47:00.453Z,27.17
2019-02-10T13:49:29.354Z,30.33
2019-02-10T13:52:00.393Z,30.47
2019-02-10T13:54:28.967Z,26.53
2019-02-10T13:56:57.857Z,27.17
2019-02-10T13:59:36.190Z,25.70
2019-02-10T14:02:05.049Z,24.27
2019-02-10T14:04:33.877Z,25.37
2019-02-10T14:07:02.799Z,44.17
2019-02-10T14:09:31.721Z,25.63
2019-02-10T14:12:00.594Z,24.60
2019-02-10T14:14:29.475Z,24.23
2019-02-10T14:16:58.380Z,25.47
2019-02-10T14:19:28.804Z,26.73
2019-02-10T14:21:57.675Z,27.73
2019-02-10T14:24:28.137Z,25.43
2019-02-10T14:26:57.236Z,25.47
2019-02-10T14:29:26.124Z,68.07
2019-02-10T14:31:55.009Z,28.47
2019-02-10T14:34:23.974Z,26.07
2019-02-10T14:36:52.792Z,25.80
2019-02-10T14:39:21.762Z,29.20
2019-02-10T14:41:50.654Z,28.60
2019-02-10T14:44:19.465Z,28.83
2019-02-10T14:46:48.453Z,28.10
2019-02-10T14:49:17.329Z,29.00
2019-02-10T14:51:46.191Z,28.27
2019-02-10T14:54:15.110Z,30.70
2019-02-10T14:56:43.991Z,29.43
2019-02-10T14:59:12.987Z,29.03
2019-02-10T15:01:41.875Z,29.40
2019-02-10T15:04:10.785Z,29.00
2019-02-10T15:06:40.589Z,30.63
2019-02-10T15:09:10.040Z,28.67
2019-02-10T15:11:40.379Z,27.57
2019-02-10T15:14:09.209Z,36.05
2019-02-10T15:16:38.116Z,30.67
2019-02-10T15:19:06.957Z,31.83
2019-02-10T15:21:35.803Z,31.70
2019-02-10T15:24:04.699Z,28.37
2019-02-10T15:26:38.290Z,28.87
2019-02-10T15:29:07.191Z,27.07
2019-02-10T15:31:36.561Z,30.07
2019-02-10T15:34:07.947Z,31.50
2019-02-10T15:36:36.569Z,36.97
2019-02-10T15:39:06.724Z,31.57
2019-02-10T15:41:35.753Z,29.60
2019-02-10T15:44:04.643Z,29.80
2019-02-10T15:46:33.518Z,29.77
2019-02-10T15:49:02.350Z,31.07
2019-02-10T15:51:36.946Z,32.42
2019-02-10T15:54:01.966Z,32.20
2019-02-10T15:56:30.799Z,29.87
2019-02-10T15:58:59.687Z,28.83
2019-02-10T16:01:28.685Z,30.07
2019-02-10T16:03:57.517Z,33.00
2019-02-10T16:06:26.400Z,32.87
2019-02-10T16:08:55.374Z,35.00
2019-02-10T16:11:24.200Z,34.03
2019-02-10T16:13:53.136Z,32.70
2019-02-10T16:16:22.003Z,33.13
2019-02-10T16:18:50.868Z,30.90
2019-02-10T16:21:19.786Z,33.43
2019-02-10T16:23:48.758Z,35.17
2019-02-10T16:26:17.704Z,34.30
2019-02-10T16:28:46.625Z,31.73
2019-02-10T16:31:15.445Z,32.47
2019-02-10T16:33:44.576Z,31.07
2019-02-10T16:36:13.475Z,32.53
2019-02-10T16:38:42.310Z,43.28
2019-02-10T16:41:11.250Z,42.17
2019-02-10T16:43:40.211Z,38.70
2019-02-10T16:46:09.094Z,36.33
2019-02-10T16:48:37.910Z,33.43
2019-02-10T16:51:10.734Z,33.73
2019-02-10T16:53:39.736Z,30.87
2019-02-10T16:56:09.871Z,31.53
2019-02-10T16:58:38.912Z,29.73
2019-02-10T17:01:07.766Z,29.70
2019-02-10T17:03:36.653Z,29.30
2019-02-10T17:06:05.612Z,30.20
2019-02-10T17:08:34.482Z,28.90
2019-02-10T17:11:03.326Z,30.27
2019-02-10T17:13:32.213Z,32.60
2019-02-10T17:16:05.199Z,30.80
2019-02-10T17:18:36.273Z,44.15
2019-02-10T17:21:14.397Z,32.50
2019-02-10T17:23:45.517Z,31.20
2019-02-10T17:26:16.062Z,28.70
2019-02-10T17:28:47.058Z,28.27
2019-02-10T17:31:15.921Z,28.80
2019-02-10T17:33:44.802Z,28.63
2019-02-10T17:36:16.340Z,28.37
2019-02-10T17:41:34.011Z,28.00
2019-02-10T17:44:32.989Z,28.70
2019-02-10T17:47:03.507Z,29.83
2019-02-10T17:49:34.931Z,30.97
2019-02-10T17:52:04.558Z,30.63
2019-02-10T17:54:34.453Z,28.43
2019-02-10T17:57:03.702Z,29.00
2019-02-10T17:59:36.027Z,29.57
2019-02-10T18:02:04.829Z,28.97
2019-02-10T18:04:37.746Z,28.00
2019-02-10T18:07:09.854Z,39.10
2019-02-10T18:09:38.683Z,33.20
2019-02-10T18:12:09.559Z,31.23
2019-02-10T18:14:43.890Z,29.97
2019-02-10T18:17:23.239Z,31.73
2019-02-10T18:20:00.907Z,29.90
2019-02-10T18:22:33.608Z,37.17
2019-02-10T18:25:06.774Z,29.00
2019-02-10T18:27:40.220Z,35.00
2019-02-10T18:30:29.711Z,34.57
2019-02-10T18:35:51.009Z,36.57
2019-02-10T18:38:28.466Z,39.50
2019-02-10T18:41:02.105Z,43.77
2019-02-10T18:43:38.623Z,42.93
2019-02-10T18:46:26.437Z,60.73
2019-02-10T18:49:02.280Z,41.70
2019-02-10T18:51:38.549Z,43.47
2019-02-10T18:54:23.875Z,39.33
2019-02-10T18:56:58.705Z,36.83
2019-02-10T18:59:29.091Z,40.10
2019-02-10T19:01:59.573Z,34.63
2019-02-10T19:04:45.159Z,36.97
2019-02-10T19:07:15.630Z,34.60
2019-02-10T19:10:02.319Z,36.07
2019-02-10T19:12:32.782Z,31.80
2019-02-10T19:15:03.369Z,34.63
2019-02-10T19:17:42.710Z,30.73
2019-02-10T19:20:24.212Z,28.30
2019-02-10T19:22:57.521Z,29.77
2019-02-10T19:25:33.966Z,28.53
2019-02-10T19:28:10.229Z,28.43
2019-02-10T19:30:55.593Z,30.07
2019-02-10T19:33:26.177Z,43.35
2019-02-10T19:35:56.582Z,31.63
2019-02-10T19:38:45.328Z,30.63
2019-02-10T19:41:15.713Z,31.30
2019-02-10T19:44:02.305Z,29.80
2019-02-10T19:46:41.806Z,32.73
2019-02-10T19:49:21.800Z,31.10
2019-02-10T19:52:10.701Z,32.13
2019-02-10T19:54:44.032Z,30.70
2019-02-10T19:57:30.822Z,33.13
2019-02-10T20:00:19.694Z,31.37
2019-02-10T20:02:50.164Z,36.87
2019-02-10T20:05:38.518Z,32.50
2019-02-10T20:08:21.079Z,44.00
2019-02-10T20:10:54.635Z,35.53
2019-02-10T20:13:25.036Z,32.67
2019-02-10T20:15:58.235Z,31.77
2019-02-10T20:18:34.265Z,30.80
2019-02-10T20:21:13.786Z,30.27
2019-02-10T20:23:53.401Z,29.57
2019-02-10T20:26:35.984Z,28.53
2019-02-10T20:29:22.938Z,30.13
2019-02-10T20:31:56.077Z,33.20
2019-02-10T20:34:43.133Z,30.53
2019-02-10T20:37:16.316Z,30.90
2019-02-10T20:39:59.256Z,30.63
2019-02-10T20:42:31.197Z,30.37
2019-02-10T20:45:01.600Z,31.70
2019-02-10T20:47:47.392Z,33.70
2019-02-10T20:50:23.802Z,33.43
2019-02-10T20:53:10.472Z,32.90
2019-02-10T20:55:40.886Z,43.83
2019-02-10T20:58:17.123Z,33.00
2019-02-10T21:00:50.547Z,31.33
2019-02-10T21:03:29.979Z,35.90
2019-02-10T21:06:09.908Z,32.13
2019-02-10T21:08:49.654Z,30.33
2019-02-10T21:11:35.033Z,30.33
2019-02-10T21:14:21.686Z,29.87
2019-02-10T21:16:52.084Z,29.87
2019-02-10T21:19:25.198Z,29.43
2019-02-10T21:22:01.636Z,29.03
2019-02-10T21:24:41.180Z,29.10
2019-02-10T21:27:12.062Z,30.03
2019-02-10T21:29:47.979Z,28.90
2019-02-10T21:32:21.209Z,41.13
2019-02-10T21:34:53.300Z,32.33
2019-02-10T21:37:26.180Z,29.73
2019-02-10T21:39:59.318Z,29.33
2019-02-10T21:42:32.383Z,31.00
2019-02-10T21:45:08.582Z,29.20
2019-02-10T21:47:39.051Z,29.40
2019-02-10T21:50:08.781Z,28.90
2019-02-10T21:52:38.282Z,30.33
2019-02-10T21:55:14.190Z,30.47
2019-02-10T21:57:43.285Z,28.47
2019-02-10T22:00:14.403Z,27.67
2019-02-10T22:02:43.319Z,27.90
2019-02-10T22:05:13.465Z,28.93
2019-02-10T22:07:45.930Z,27.77
2019-02-10T22:10:14.796Z,26.43
2019-02-10T22:12:43.669Z,26.13
2019-02-10T22:15:12.518Z,39.83
2019-02-10T22:17:41.404Z,29.33
2019-02-10T22:20:12.296Z,28.67
2019-02-10T22:22:41.224Z,27.07
2019-02-10T22:25:11.775Z,25.40
2019-02-10T22:27:42.177Z,26.77
2019-02-10T22:30:13.787Z,24.13
2019-02-10T22:32:42.666Z,24.73
2019-02-10T22:35:11.575Z,24.83
2019-02-10T22:37:40.444Z,24.53
2019-02-10T22:40:13.570Z,25.43
2019-02-10T22:42:45.764Z,24.80
2019-02-10T22:45:13.401Z,26.27
2019-02-10T22:47:42.331Z,25.00
2019-02-10T22:52:41.818Z,26.83
2019-02-10T22:55:10.672Z,24.83
2019-02-10T22:57:41.112Z,24.80
2019-02-10T23:00:38.529Z,23.27
2019-02-10T23:03:07.478Z,25.93
2019-02-10T23:05:36.312Z,24.53
2019-02-10T23:08:05.239Z,24.27
2019-02-10T23:10:34.092Z,25.03
2019-02-10T23:13:02.222Z,23.63
2019-02-10T23:15:31.161Z,22.93
2019-02-10T23:17:59.996Z,22.77
2019-02-10T23:20:28.812Z,23.23
2019-02-10T23:22:57.680Z,24.37
2019-02-10T23:25:26.508Z,22.97
2019-02-10T23:27:55.382Z,22.63
2019-02-10T23:30:24.261Z,22.43
2019-02-10T23:32:53.084Z,22.77
2019-02-10T23:35:21.940Z,30.43
2019-02-10T23:37:50.841Z,23.90
2019-02-10T23:40:19.679Z,22.40
2019-02-10T23:42:48.560Z,21.27
2019-02-10T23:45:17.532Z,22.53
2019-02-10T23:47:46.392Z,22.00
2019-02-10T23:50:15.212Z,22.57
2019-02-10T23:52:44.124Z,22.77
2019-02-10T23:55:12.933Z,22.00
2019-02-10T23:57:41.775Z,20.80
